Time;durP1;ratioP1;P1;durP2;ratioP2;P2;SDS_P1;SDS_P2;PMS_P1;PMS_P2;Temp;Humidity;BMP_temperature;BMP_pressure;BME280_temperature;BME280_humidity;BME280_pressure;Samples;Min_cycle;Max_cycle;Signal;HPM_P1;HPM_P2
2022/05/28 00:01:26;;;;;;;2.80;1.60;;;;;;;10.99;83.70;98897.30;109305;1277;22381;-65
2022/05/28 00:03:57;;;;;;;1.50;1.30;;;;;;;10.97;83.80;98907.89;109165;1276;138920;-64
2022/05/28 00:06:24;;;;;;;4.40;1.60;;;;;;;10.97;83.84;98907.56;109275;1276;22450;-64
2022/05/28 00:08:51;;;;;;;2.90;1.40;;;;;;;10.98;83.77;98897.85;109245;1276;22516;-64
2022/05/28 00:11:23;;;;;;;4.20;2.00;;;;;;;10.96;83.66;98896.73;109123;1277;139673;-64
2022/05/28 00:13:50;;;;;;;3.30;1.70;;;;;;;10.94;83.59;98892.05;109278;1276;22600;-64
2022/05/28 00:16:17;;;;;;;3.30;1.70;;;;;;;10.92;83.44;98880.27;109237;1276;138435;-64
2022/05/28 00:18:45;;;;;;;3.00;1.60;;;;;;;10.92;83.56;98865.98;109276;1276;23215;-64
2022/05/28 00:21:12;;;;;;;;;;;;;;;10.92;83.55;98853.35;109361;1275;22559;-64
2022/05/28 00:23:40;;;;;;;4.60;1.60;;;;;;;10.93;83.64;98837.05;109196;1276;124634;-64
2022/05/28 00:26:07;;;;;;;6.30;1.60;;;;;;;10.93;83.53;98823.42;109164;1276;22637;-64
2022/05/28 00:28:33;;;;;;;2.20;1.40;;;;;;;10.94;83.34;98828.65;109317;1274;138131;-64
2022/05/28 00:31:00;;;;;;;;;;;;;;;10.95;83.36;98850.89;109264;1277;22612;-64
2022/05/28 00:33:27;;;;;;;3.60;1.60;;;;;;;10.96;83.49;98836.29;109251;1275;22349;-64
2022/05/28 00:35:54;;;;;;;3.40;1.70;;;;;;;10.94;83.15;98831.66;109152;1275;138063;-64
2022/05/28 00:38:21;;;;;;;;;;;;;;;10.93;83.21;98832.54;109303;1276;22581;-64
2022/05/28 00:40:49;;;;;;;2.30;1.60;;;;;;;10.91;82.98;98853.78;106143;1277;124578;-64
2022/05/28 00:43:15;;;;;;;5.50;2.00;;;;;;;10.89;82.98;98863.38;104910;1277;26664;-63
2022/05/28 00:45:43;;;;;;;4.90;1.80;;;;;;;10.90;83.38;98869.65;104788;1277;138485;-64
2022/05/28 00:48:10;;;;;;;5.30;1.90;;;;;;;10.90;83.44;98862.67;104735;1277;22550;-63
2022/05/28 00:50:37;;;;;;;;;;;;;;;10.90;83.22;98858.69;104705;1277;22909;-64
2022/05/28 00:53:04;;;;;;;2.50;1.70;;;;;;;10.90;83.23;98855.20;104916;1274;125103;-63
2022/05/28 00:55:32;;;;;;;2.60;1.80;;;;;;;10.91;83.28;98848.39;104975;1277;22548;-64
2022/05/28 00:58:00;;;;;;;2.60;1.50;;;;;;;10.91;83.28;98855.41;109164;1277;138565;-64
2022/05/28 01:00:27;;;;;;;4.70;1.60;;;;;;;10.92;83.25;98859.52;109191;1277;23133;-64
2022/05/28 01:02:55;;;;;;;;;;;;;;;10.90;83.32;98840.91;109297;1277;22486;-64
2022/05/28 01:06:01;;;;;;;2.90;1.90;;;;;;;10.88;83.21;98825.98;109317;1274;124885;-64
2022/05/28 01:08:38;;;;;;;2.20;1.80;;;;;;;10.86;83.18;98838.52;109255;1274;22431;-64
2022/05/28 01:11:19;;;;;;;2.30;1.80;;;;;;;10.86;83.34;98868.71;109048;1276;138875;-64
2022/05/28 01:14:08;;;;;;;2.80;1.90;;;;;;;10.86;83.26;98864.68;109281;1276;22415;-64
2022/05/28 01:16:40;;;;;;;4.00;2.10;;;;;;;10.85;83.33;98855.64;106698;1274;138331;-64
2022/05/28 01:19:22;;;;;;;3.50;1.80;;;;;;;10.85;83.26;98854.98;104833;1277;22568;-63
2022/05/28 01:22:09;;;;;;;3.70;2.00;;;;;;;10.84;83.10;98866.38;104767;1277;139819;-64
2022/05/28 01:24:55;;;;;;;3.90;2.30;;;;;;;10.84;83.17;98863.33;104843;1277;25302;-64
2022/05/28 01:27:26;;;;;;;1.70;1.60;;;;;;;10.82;83.37;98863.87;105022;1277;25229;-64
2022/05/28 01:29:54;;;;;;;3.40;1.90;;;;;;;10.81;83.34;98862.25;104858;1277;138145;-63
2022/05/28 01:32:23;;;;;;;5.80;2.30;;;;;;;10.81;83.24;98847.16;109226;1276;22458;-64
2022/05/28 01:34:50;;;;;;;3.10;1.80;;;;;;;10.80;83.22;98845.97;109066;1277;138620;-64
2022/05/28 01:37:17;;;;;;;;;;;;;;;10.80;83.18;98842.11;109032;1278;22503;-64
2022/05/28 01:39:46;;;;;;;2.70;1.90;;;;;;;10.79;83.30;98836.05;109128;1277;124867;-64
2022/05/28 01:42:13;;;;;;;5.60;2.20;;;;;;;10.79;83.19;98854.80;109166;1277;22472;-64
2022/05/28 01:44:40;;;;;;;2.80;2.20;;;;;;;10.79;83.48;98858.06;109267;1275;23200;-64
2022/05/28 01:47:07;;;;;;;3.30;2.00;;;;;;;10.79;83.38;98867.23;109218;1274;138566;-64
2022/05/28 01:49:34;;;;;;;;;;;;;;;10.80;83.61;98868.70;109381;1276;23296;-64
2022/05/28 01:52:01;;;;;;;2.20;1.50;;;;;;;10.82;83.51;98858.59;109232;1275;124683;-64
2022/05/28 01:54:30;;;;;;;5.10;2.20;;;;;;;10.82;83.51;98854.78;109261;1275;22442;-64
2022/05/28 01:56:57;;;;;;;4.20;2.40;;;;;;;10.83;83.55;98869.92;109202;1277;22409;-64
2022/05/28 01:59:25;;;;;;;3.00;1.90;;;;;;;10.84;83.53;98878.20;109140;1277;139295;-64
2022/05/28 02:01:52;;;;;;;3.20;1.90;;;;;;;10.84;83.27;98871.01;109346;1274;22551;-64
2022/05/28 02:04:19;;;;;;;3.40;1.80;;;;;;;10.85;83.39;98849.48;109209;1277;138296;-64
2022/05/28 02:06:46;;;;;;;2.40;2.10;;;;;;;10.84;83.16;98847.52;109246;1276;23356;-64
2022/05/28 02:09:22;;;;;;;3.30;2.20;;;;;;;10.84;83.27;98842.73;109220;1275;23612;-64
2022/05/28 02:12:07;;;;;;;2.70;1.80;;;;;;;10.84;83.25;98834.21;109209;1274;138745;-64
2022/05/28 02:14:40;;;;;;;2.30;2.10;;;;;;;10.85;83.20;98833.52;109256;1276;22493;-64
2022/05/28 02:17:17;;;;;;;2.80;2.20;;;;;;;10.86;83.56;98835.63;105510;1277;139128;-63
2022/05/28 02:20:13;;;;;;;3.90;2.20;;;;;;;10.87;83.11;98833.73;104892;1278;26605;-63
2022/05/28 02:23:09;;;;;;;2.60;2.00;;;;;;;10.87;83.21;98832.31;104685;1278;139796;-63
2022/05/28 02:25:53;;;;;;;2.80;2.30;;;;;;;10.88;83.08;98836.45;104941;1278;22628;-63
2022/05/28 02:28:23;;;;;;;3.10;1.90;;;;;;;10.87;83.12;98836.34;109147;1276;139969;-64
2022/05/28 02:30:51;;;;;;;2.90;2.20;;;;;;;10.87;83.00;98846.42;109197;1277;23201;-64
2022/05/28 02:33:18;;;;;;;3.30;2.00;;;;;;;10.88;83.09;98864.26;109299;1275;23159;-64
2022/05/28 02:35:46;;;;;;;3.60;2.00;;;;;;;10.88;82.93;98870.63;109200;1277;139219;-64
2022/05/28 02:38:13;;;;;;;5.10;2.70;;;;;;;10.89;82.93;98872.05;109272;1276;23161;-64
2022/05/28 02:40:40;;;;;;;6.70;1.90;;;;;;;10.89;83.02;98868.66;109103;1277;138779;-65
2022/05/28 02:43:07;;;;;;;3.40;2.30;;;;;;;10.90;83.04;98862.89;109264;1277;22952;-64
2022/05/28 02:45:34;;;;;;;4.30;2.00;;;;;;;10.90;82.96;98859.08;109129;1276;140604;-64
2022/05/28 02:48:00;;;;;;;;;;;;;;;10.90;82.92;98858.69;109284;1277;22582;-64
2022/05/28 02:50:27;;;;;;;3.10;2.60;;;;;;;10.90;83.02;98860.70;109404;1274;22512;-64
2022/05/28 02:52:55;;;;;;;;;;;;;;;10.89;83.09;98865.34;109351;1274;139204;-64
2022/05/28 02:55:22;;;;;;;;;;;;;;;10.86;83.07;98851.39;109264;1277;22587;-64
2022/05/28 02:57:49;;;;;;;6.10;2.30;;;;;;;10.89;83.11;98855.96;109150;1276;125856;-64
2022/05/28 03:00:16;;;;;;;2.70;2.20;;;;;;;10.89;82.99;98862.61;109251;1274;23158;-64
2022/05/28 03:02:43;;;;;;;6.80;2.20;;;;;;;10.89;83.02;98861.97;109266;1277;22490;-64
2022/05/28 03:05:12;;;;;;;6.30;2.10;;;;;;;10.90;83.03;98861.85;109302;1274;140156;-64
2022/05/28 03:07:39;;;;;;;4.80;2.40;;;;;;;10.90;83.14;98853.19;109265;1274;22646;-64
2022/05/28 03:10:06;;;;;;;2.60;2.10;;;;;;;10.92;82.96;98854.02;109216;1274;138879;-64
2022/05/28 03:12:32;;;;;;;3.10;2.10;;;;;;;10.92;83.10;98860.16;109388;1274;23250;-64
2022/05/28 03:14:59;;;;;;;;;;;;;;;10.93;83.12;98865.84;109367;1274;22630;-64
2022/05/28 03:17:26;;;;;;;3.70;2.20;;;;;;;10.95;83.07;98873.03;109276;1274;124940;-64
2022/05/28 03:19:53;;;;;;;;;;;;;;;10.98;82.93;98882.20;109384;1274;22501;-64
2022/05/28 03:22:20;;;;;;;3.50;2.50;;;;;;;10.98;82.74;98877.85;109146;1277;124661;-64
2022/05/28 03:24:46;;;;;;;;;;;;;;;10.99;82.73;98882.86;109421;1274;22574;-64
2022/05/28 03:27:13;;;;;;;5.80;2.80;;;;;;;11.01;83.00;98882.53;109368;1274;23221;-64
2022/05/28 03:29:41;;;;;;;3.70;2.30;;;;;;;11.02;82.76;98882.97;109264;1274;138588;-64
2022/05/28 03:32:08;;;;;;;;;;;;;;;11.01;82.73;98886.19;109396;1274;22487;-64
2022/05/28 03:34:35;;;;;;;4.40;2.90;;;;;;;11.01;82.42;98885.42;109172;1276;124921;-64
2022/05/28 03:37:02;;;;;;;;;;;;;;;11.00;82.51;98885.38;109394;1274;22511;-64
2022/05/28 03:39:29;;;;;;;6.90;2.80;;;;;;;11.00;82.28;98881.28;109287;1276;22468;-64
2022/05/28 03:41:55;;;;;;;;;;;;;;;11.00;82.50;98884.88;109242;1276;139337;-64
2022/05/28 03:44:22;;;;;;;5.80;2.40;;;;;;;11.00;82.25;98888.70;109403;1274;23290;-64
2022/05/28 03:46:49;;;;;;;;;;;;;;;10.98;82.18;98886.95;109278;1274;139124;-65
2022/05/28 03:49:21;;;;;;;3.30;2.50;;;;;;;10.98;82.32;98890.98;109370;1274;22275;-64
2022/05/28 03:51:48;;;;;;;3.80;2.90;;;;;;;10.99;82.28;98890.55;109199;1277;138519;-64
2022/05/28 03:54:15;;;;;;;3.10;2.40;;;;;;;11.02;82.34;98892.63;109276;1276;22453;-64
2022/05/28 03:56:42;;;;;;;;;;;;;;;11.03;82.42;98891.64;109300;1276;22644;-64
2022/05/28 03:59:09;;;;;;;3.00;2.60;;;;;;;11.05;82.29;98888.09;109133;1277;125429;-64
2022/05/28 04:01:36;;;;;;;3.10;2.30;;;;;;;11.07;82.17;98890.27;109331;1277;22451;-64
2022/05/28 04:04:03;;;;;;;3.30;2.60;;;;;;;11.10;82.41;98893.64;109304;1274;138525;-64
2022/05/28 04:06:30;;;;;;;3.20;2.50;;;;;;;11.13;82.30;98892.85;109277;1277;22554;-64
2022/05/28 04:08:57;;;;;;;6.70;3.30;;;;;;;11.14;82.20;98888.29;109409;1274;22482;-64
2022/05/28 04:11:24;;;;;;;3.50;2.60;;;;;;;11.18;82.02;98891.34;109171;1277;138297;-64
2022/05/28 04:13:51;;;;;;;;;;;;;;;11.20;81.72;98895.09;109299;1276;22577;-64
2022/05/28 04:16:17;;;;;;;5.20;2.80;;;;;;;11.20;81.39;98898.73;109234;1276;125443;-64
2022/05/28 04:18:44;;;;;;;7.00;2.90;;;;;;;11.20;81.20;98902.66;109281;1277;23244;-64
2022/05/28 04:21:11;;;;;;;;;;;;;;;11.21;81.05;98900.44;109377;1275;22601;-65
2022/05/28 04:23:38;;;;;;;4.10;3.10;;;;;;;11.21;80.98;98898.85;109176;1277;125602;-64
2022/05/28 04:26:05;;;;;;;;;;;;;;;11.24;81.08;98903.10;107490;1277;24352;-64
2022/05/28 04:28:31;;;;;;;4.80;2.70;;;;;;;11.26;80.94;98904.98;104653;1277;125616;-63
2022/05/28 04:30:58;;;;;;;8.40;3.40;;;;;;;11.29;81.12;98904.76;104971;1277;26615;-63
2022/05/28 04:33:25;;;;;;;4.90;3.00;;;;;;;11.31;80.99;98903.06;104944;1277;22704;-63
2022/05/28 04:35:52;;;;;;;5.50;2.60;;;;;;;11.34;80.69;98908.89;109050;1277;137742;-64
2022/05/28 04:38:19;;;;;;;;;;;;;;;11.37;80.58;98913.58;109272;1276;23166;-64
2022/05/28 04:40:46;;;;;;;7.30;3.40;;;;;;;11.40;80.81;98914.39;109153;1277;126409;-65
2022/05/28 04:43:13;;;;;;;5.60;2.80;;;;;;;11.42;80.70;98914.73;109287;1276;22471;-64
2022/05/28 04:45:40;;;;;;;3.20;2.70;;;;;;;11.45;80.66;98917.09;109272;1274;139825;-64
2022/05/28 04:48:07;;;;;;;4.30;2.80;;;;;;;11.49;80.66;98912.40;109262;1275;22250;-64
2022/05/28 04:50:34;;;;;;;3.80;2.50;;;;;;;11.52;80.48;98911.35;109283;1276;22508;-64
2022/05/28 04:53:00;;;;;;;;;;;;;;;11.55;80.22;98909.13;109189;1276;138333;-64
2022/05/28 04:55:27;;;;;;;3.50;2.80;;;;;;;11.61;80.54;98912.55;109265;1277;23260;-64
2022/05/28 04:57:54;;;;;;;;;;;;;;;11.64;80.47;98906.16;109207;1274;139093;-64
2022/05/28 05:00:25;;;;;;;6.10;3.40;;;;;;;11.69;80.39;98911.70;109391;1274;22427;-64
2022/05/28 05:02:52;;;;;;;6.10;3.50;;;;;;;11.75;80.24;98912.18;109389;1274;23195;-64
2022/05/28 05:05:19;;;;;;;6.90;3.90;;;;;;;11.77;79.91;98909.35;109271;1274;139011;-64
2022/05/28 05:07:45;;;;;;;;;;;;;;;11.80;79.58;98917.90;109282;1275;23224;-64
2022/05/28 05:10:12;;;;;;;4.00;3.40;;;;;;;11.82;79.55;98923.04;109257;1274;125593;-64
2022/05/28 05:12:39;;;;;;;;;;;;;;;11.84;79.40;98930.54;109277;1276;22463;-64
2022/05/28 05:15:11;;;;;;;7.90;3.90;;;;;;;11.85;79.22;98932.70;109340;1274;22436;-64
2022/05/28 05:17:38;;;;;;;7.60;3.90;;;;;;;11.85;78.96;98926.05;109194;1276;138721;-64
2022/05/28 05:20:06;;;;;;;7.60;3.30;;;;;;;11.88;78.89;98921.23;109275;1276;22498;-64
2022/05/28 05:22:32;;;;;;;5.80;4.10;;;;;;;11.90;78.90;98924.73;109136;1276;139203;-64
2022/05/28 05:24:59;;;;;;;;;;;;;;;11.96;78.78;98918.85;109291;1277;22475;-64
2022/05/28 05:27:26;;;;;;;6.20;3.50;;;;;;;12.02;79.01;98916.90;109265;1276;23314;-64
2022/05/28 05:29:56;;;;;;;4.40;3.30;;;;;;;12.10;78.95;98921.17;109284;1274;139887;-64
2022/05/28 05:32:23;;;;;;;5.80;3.60;;;;;;;12.20;78.53;98923.19;109264;1276;23333;-64
2022/05/28 05:34:50;;;;;;;8.40;3.60;;;;;;;12.30;78.20;98921.58;109165;1277;138907;-64
2022/05/28 05:37:17;;;;;;;4.40;3.70;;;;;;;12.39;77.66;98922.40;109252;1277;22580;-64
2022/05/28 05:39:44;;;;;;;6.70;3.80;;;;;;;12.50;77.80;98926.20;109163;1277;138889;-64
2022/05/28 05:42:10;;;;;;;;;;;;;;;12.62;77.31;98928.56;109268;1276;22612;-64
2022/05/28 05:44:38;;;;;;;4.20;3.80;;;;;;;12.72;76.81;98933.45;109261;1276;22435;-64
2022/05/28 05:47:05;;;;;;;4.90;3.40;;;;;;;12.81;76.63;98929.29;109156;1275;138318;-64
2022/05/28 05:49:32;;;;;;;5.70;3.60;;;;;;;12.88;76.40;98930.79;109282;1277;22572;-65
2022/05/28 05:51:59;;;;;;;6.20;4.10;;;;;;;12.95;76.23;98936.21;109201;1277;139457;-64
2022/05/28 05:54:25;;;;;;;;;;;;;;;13.00;75.82;98933.25;109296;1275;22615;-64
2022/05/28 05:56:53;;;;;;;4.80;3.40;;;;;;;13.04;75.44;98929.88;109417;1274;22560;-64
2022/05/28 05:59:20;;;;;;;5.50;3.10;;;;;;;13.13;75.12;98929.53;109240;1275;139285;-64
2022/05/28 06:01:47;;;;;;;6.20;3.50;;;;;;;13.25;74.87;98926.52;109244;1276;22559;-65
2022/05/28 06:04:14;;;;;;;5.20;3.00;;;;;;;13.37;74.42;98929.68;109167;1276;139736;-65
2022/05/28 06:06:40;;;;;;;7.30;3.20;;;;;;;13.45;74.02;98926.58;109278;1275;22516;-64
2022/05/28 06:09:07;;;;;;;3.70;2.80;;;;;;;13.49;73.64;98929.48;109258;1277;22694;-65
2022/05/28 06:11:34;;;;;;;5.40;3.00;;;;;;;13.51;73.51;98932.42;109240;1276;139214;-64
2022/05/28 06:14:01;;;;;;;5.30;3.20;;;;;;;13.53;73.12;98934.77;109281;1277;22311;-64
2022/05/28 06:16:28;;;;;;;5.10;3.00;;;;;;;13.49;72.68;98936.82;109244;1277;138391;-64
2022/05/28 06:18:55;;;;;;;5.80;3.10;;;;;;;13.51;72.38;98943.42;109274;1276;23444;-64
2022/05/28 06:21:22;;;;;;;5.00;3.40;;;;;;;13.48;72.20;98947.07;109408;1274;22469;-64
2022/05/28 06:23:48;;;;;;;5.60;3.30;;;;;;;13.44;72.07;98942.34;109141;1277;138967;-64
2022/05/28 06:26:15;;;;;;;6.60;3.40;;;;;;;13.42;71.91;98939.02;109247;1276;22554;-65
2022/05/28 06:28:43;;;;;;;3.80;2.90;;;;;;;13.41;72.08;98935.34;109158;1276;139340;-64
2022/05/28 06:31:10;;;;;;;8.20;3.70;;;;;;;13.39;72.31;98931.08;109264;1276;23202;-64
2022/05/28 06:33:38;;;;;;;4.30;3.00;;;;;;;13.38;72.03;98928.13;109235;1275;139031;-64
2022/05/28 06:36:05;;;;;;;7.00;3.60;;;;;;;13.38;72.30;98931.20;109262;1275;22405;-64
2022/05/28 06:38:32;;;;;;;8.10;3.10;;;;;;;13.39;72.47;98932.61;109443;1274;22456;-64
2022/05/28 06:41:00;;;;;;;6.70;3.20;;;;;;;13.39;72.30;98927.73;109170;1276;138006;-64
2022/05/28 06:43:27;;;;;;;4.10;3.40;;;;;;;13.44;72.31;98930.46;109304;1276;22445;-65
2022/05/28 06:45:54;;;;;;;3.80;2.80;;;;;;;13.47;71.72;98932.29;109139;1277;138755;-65
2022/05/28 06:48:21;;;;;;;5.20;3.20;;;;;;;13.53;71.64;98928.03;109236;1276;22450;-65
2022/05/28 06:51:03;;;;;;;4.60;3.00;;;;;;;13.60;71.83;98931.10;109250;1276;22500;-65
2022/05/28 06:53:31;;;;;;;6.30;2.90;;;;;;;13.71;72.02;98930.33;109214;1276;138961;-65
2022/05/28 06:55:58;;;;;;;5.40;3.70;;;;;;;13.80;71.75;98927.19;109260;1276;22485;-65
2022/05/28 06:58:25;;;;;;;8.10;5.00;;;;;;;13.91;71.60;98926.11;109185;1275;139172;-65
2022/05/28 07:00:52;;;;;;;5.60;4.00;;;;;;;14.02;71.40;98928.92;109373;1274;22548;-65
2022/05/28 07:03:25;;;;;;;4.80;3.30;;;;;;;14.10;71.35;98932.53;109286;1276;23181;-63
2022/05/28 07:05:53;;;;;;;5.40;3.10;;;;;;;14.18;70.99;98929.47;109246;1274;138803;-63
2022/05/28 07:08:20;;;;;;;6.00;2.90;;;;;;;14.26;70.46;98932.81;109379;1274;22423;-63
2022/05/28 07:10:52;;;;;;;3.60;2.60;;;;;;;14.32;69.93;98936.60;109220;1275;138011;-63
2022/05/28 07:13:19;;;;;;;4.90;2.50;;;;;;;14.35;69.79;98935.02;109268;1277;22518;-63
2022/05/28 07:15:46;;;;;;;8.30;3.00;;;;;;;14.38;69.39;98931.86;109123;1276;137352;-63
2022/05/28 07:18:14;;;;;;;4.50;2.60;;;;;;;14.44;69.18;98930.42;109298;1276;22468;-66
2022/05/28 07:20:40;;;;;;;3.80;2.70;;;;;;;14.52;68.99;98933.27;109266;1277;22656;-64
2022/05/28 07:23:12;;;;;;;7.10;2.60;;;;;;;14.61;67.59;98927.52;109146;1276;138698;-64
2022/05/28 07:25:40;;;;;;;6.20;2.40;;;;;;;14.66;66.38;98929.04;109198;1276;22618;-64
2022/05/28 07:28:25;;;;;;;7.30;2.30;;;;;;;14.71;65.23;98935.05;109144;1276;137960;-64
2022/05/28 07:30:52;;;;;;;6.90;2.50;;;;;;;14.76;64.96;98935.06;109233;1276;23296;-63
2022/05/28 07:33:19;;;;;;;4.00;2.50;;;;;;;14.82;64.83;98933.70;109264;1276;22558;-64
2022/05/28 07:35:46;;;;;;;3.60;2.10;;;;;;;14.89;65.01;98936.21;109161;1276;137752;-64
2022/05/28 07:38:13;;;;;;;6.70;2.50;;;;;;;14.96;64.65;98939.23;109251;1277;22649;-64
2022/05/28 07:40:40;;;;;;;4.70;2.20;;;;;;;15.01;64.23;98932.61;109184;1276;137865;-64
2022/05/28 07:43:07;;;;;;;3.60;2.10;;;;;;;15.05;63.51;98929.02;109276;1276;22529;-64
2022/05/28 07:45:38;;;;;;;4.90;2.60;;;;;;;15.08;62.58;98929.52;109144;1274;137769;-64
2022/05/28 07:48:05;;;;;;;5.00;2.70;;;;;;;15.10;62.74;98930.36;109377;1274;22250;-64
2022/05/28 07:50:32;;;;;;;4.90;2.30;;;;;;;15.11;62.90;98932.80;109387;1274;22483;-64
2022/05/28 07:53:16;;;;;;;3.90;1.90;;;;;;;15.12;62.74;98931.65;109241;1275;137566;-64
2022/05/28 07:55:43;;;;;;;7.50;2.50;;;;;;;15.13;62.54;98928.22;109401;1274;22471;-64
2022/05/28 07:58:14;;;;;;;5.50;2.20;;;;;;;15.16;62.42;98929.23;109151;1276;138054;-64
2022/05/28 08:00:46;;;;;;;4.90;2.50;;;;;;;15.20;62.30;98929.84;109366;1274;22856;-64
2022/05/28 08:03:13;;;;;;;3.80;2.40;;;;;;;15.22;62.53;98935.52;109374;1274;22265;-64
2022/05/28 08:05:42;;;;;;;10.10;2.30;;;;;;;15.24;63.30;98939.10;109360;1274;138272;-65
2022/05/28 08:08:09;;;;;;;4.00;2.10;;;;;;;15.29;62.61;98938.52;109175;1276;22442;-64
2022/05/28 08:10:36;;;;;;;5.60;2.60;;;;;;;15.32;61.85;98939.11;109230;1274;137872;-64
2022/05/28 08:13:08;;;;;;;7.90;2.50;;;;;;;15.36;62.23;98938.00;109395;1274;22433;-64
2022/05/28 08:15:36;;;;;;;5.90;3.20;;;;;;;15.41;62.09;98942.97;108357;1276;138460;-63
2022/05/28 08:18:04;;;;;;;5.90;2.30;;;;;;;15.45;62.52;98942.42;109401;1273;22526;-63
2022/05/28 08:23:18;;;;;;;3.80;2.70;;;;;;;15.56;62.10;98937.70;109164;1276;137593;-64
2022/05/28 08:25:46;;;;;;;6.30;2.80;;;;;;;15.61;61.64;98940.05;109242;1276;22471;-64
2022/05/28 08:28:14;;;;;;;8.40;2.40;;;;;;;15.64;61.24;98937.31;109168;1276;137879;-65
2022/05/28 08:30:41;;;;;;;5.70;2.10;;;;;;;15.68;60.93;98939.98;109157;1276;22445;-64
2022/05/28 08:33:09;;;;;;;3.00;2.10;;;;;;;15.71;60.55;98944.38;109263;1275;22457;-63
2022/05/28 08:35:36;;;;;;;5.80;2.40;;;;;;;15.72;60.38;98941.77;109168;1276;137497;-65
2022/05/28 08:38:08;;;;;;;5.90;2.10;;;;;;;15.76;61.12;98947.33;109171;1276;22422;-65
2022/05/28 08:40:51;;;;;;;2.60;1.70;;;;;;;15.83;60.70;98944.84;109105;1276;138061;-64
2022/05/28 08:43:19;;;;;;;3.20;2.20;;;;;;;15.91;59.69;98944.87;109193;1277;23378;-64
2022/05/28 08:45:48;;;;;;;3.80;1.80;;;;;;;15.97;59.89;98941.27;109173;1276;139014;-64
2022/05/28 08:48:35;;;;;;;3.90;1.80;;;;;;;16.03;59.66;98941.17;109265;1275;23095;-64
2022/05/28 08:51:08;;;;;;;4.50;2.20;;;;;;;16.09;59.37;98937.24;109251;1276;22449;-63
2022/05/28 08:53:38;;;;;;;3.60;1.80;;;;;;;16.17;57.61;98943.63;109154;1275;138205;-64
2022/05/28 08:56:05;;;;;;;3.10;1.70;;;;;;;16.22;56.82;98939.66;109172;1276;23213;-64
2022/05/28 08:58:32;;;;;;;7.00;2.50;;;;;;;16.26;56.43;98938.96;109161;1275;137729;-64
2022/05/28 09:01:07;;;;;;;6.00;4.10;;;;;;;16.31;56.09;98933.08;109253;1276;22579;-63
2022/05/28 09:03:44;;;;;;;6.20;1.90;;;;;;;16.36;56.45;98932.46;109140;1277;138302;-63
2022/05/28 09:06:16;;;;;;;3.80;1.70;;;;;;;16.41;55.85;98933.34;109231;1276;23260;-64
2022/05/28 09:08:45;;;;;;;2.60;1.60;;;;;;;16.46;55.49;98934.08;109164;1277;22517;-64
2022/05/28 09:11:24;;;;;;;7.20;3.20;;;;;;;16.50;55.06;98928.65;109305;1274;138123;-64
2022/05/28 09:13:53;;;;;;;5.70;2.30;;;;;;;16.54;55.54;98928.07;109153;1276;22431;-64
2022/05/28 09:16:30;;;;;;;17.60;11.60;;;;;;;16.56;54.85;98927.04;109169;1274;139094;-64
2022/05/28 09:19:02;;;;;;;5.00;3.10;;;;;;;16.60;54.84;98928.79;109096;1276;22566;-64
2022/05/28 09:21:29;;;;;;;3.80;1.70;;;;;;;16.65;55.06;98931.15;109383;1274;22460;-64
2022/05/28 09:23:57;;;;;;;7.40;3.20;;;;;;;16.70;53.65;98929.81;109287;1274;138105;-63
2022/05/28 09:26:53;;;;;;;4.40;1.90;;;;;;;16.73;53.13;98931.06;109268;1277;22464;-64
2022/05/28 09:29:41;;;;;;;4.60;2.40;;;;;;;16.76;52.89;98930.16;109167;1274;139804;-64
2022/05/28 09:32:33;;;;;;;18.00;12.40;;;;;;;16.78;52.28;98923.33;109266;1276;22456;-64
2022/05/28 09:35:15;;;;;;;4.30;3.20;;;;;;;16.83;52.47;98932.63;109227;1276;137894;-64
2022/05/28 09:38:04;;;;;;;4.90;1.90;;;;;;;16.85;51.83;98930.21;109276;1277;22456;-64
2022/05/28 09:40:39;;;;;;;6.00;2.80;;;;;;;16.85;52.08;98930.38;109297;1274;137385;-64
2022/05/28 09:43:38;;;;;;;5.80;3.60;;;;;;;16.89;52.66;98928.84;109158;1276;22465;-64
2022/05/28 09:46:23;;;;;;;5.10;2.20;;;;;;;16.94;51.41;98927.99;109121;1275;138971;-64
2022/05/28 09:49:19;;;;;;;2.30;1.40;;;;;;;16.94;50.28;98924.30;109187;1276;22550;-64
2022/05/28 09:51:55;;;;;;;5.00;2.50;;;;;;;16.93;51.44;98918.17;109108;1276;137517;-64
2022/05/28 09:54:27;;;;;;;4.60;2.60;;;;;;;16.97;51.51;98920.54;109259;1276;22453;-64
2022/05/28 09:57:03;;;;;;;7.50;2.50;;;;;;;17.03;51.90;98919.02;109272;1275;22610;-64
2022/05/28 09:59:43;;;;;;;4.20;2.90;;;;;;;17.07;50.51;98922.76;109038;1277;140158;-64
2022/05/28 10:02:20;;;;;;;4.90;1.90;;;;;;;17.08;49.51;98917.39;109270;1276;22471;-64
2022/05/28 10:04:52;;;;;;;5.60;2.50;;;;;;;17.09;49.36;98913.35;109063;1277;138223;-63
2022/05/28 10:07:50;;;;;;;4.80;2.70;;;;;;;17.11;49.29;98906.98;109251;1276;22424;-65
2022/05/28 10:10:26;;;;;;;7.20;3.50;;;;;;;17.14;49.85;98904.70;109180;1274;137657;-63
2022/05/28 10:13:03;;;;;;;8.20;2.10;;;;;;;17.18;49.51;98909.02;109341;1276;22625;-66
2022/05/28 10:15:31;;;;;;;11.80;7.20;;;;;;;17.24;48.50;98908.77;109264;1277;22240;-65
2022/05/28 10:18:07;;;;;;;7.30;4.30;;;;;;;17.27;48.45;98897.77;109055;1277;139260;-65
2022/05/28 10:20:34;;;;;;;9.50;5.40;;;;;;;17.32;48.37;98903.25;108929;1276;289156;-63
2022/05/28 10:24:46;;;;;;;3.70;2.10;;;;;;;17.40;48.69;98906.95;101695;1312;547047;-65
2022/05/28 10:27:30;;;;;;;5.50;2.30;;;;;;;17.41;48.56;98900.33;108158;1287;22526;-65
2022/05/28 10:29:58;;;;;;;2.80;2.00;;;;;;;17.44;48.36;98899.23;107957;1287;138507;-65
2022/05/28 10:32:35;;;;;;;3.60;1.60;;;;;;;17.47;47.06;98890.83;107917;1289;22529;-65
2022/05/28 10:35:12;;;;;;;3.20;1.50;;;;;;;17.48;46.80;98886.98;107796;1289;136484;-65
2022/05/28 10:37:40;;;;;;;10.00;4.00;;;;;;;17.51;47.25;98890.27;107804;1286;238296;-64
2022/05/28 10:40:09;;;;;;;5.90;2.30;;;;;;;17.54;47.47;98885.30;108201;1285;137282;-63
2022/05/28 10:42:37;;;;;;;7.60;4.90;;;;;;;17.54;47.36;98881.27;108276;1286;23358;-65
2022/05/28 10:45:06;;;;;;;4.00;2.60;;;;;;;17.53;46.90;98881.73;108196;1286;22410;-65
2022/05/28 10:48:00;;;;;;;5.30;2.20;;;;;;;17.53;47.10;98883.88;108404;1283;137543;-65
2022/05/28 10:50:55;;;;;;;5.20;2.60;;;;;;;17.57;47.29;98884.54;108243;1284;22460;-65
2022/05/28 10:53:25;;;;;;;7.80;5.60;;;;;;;17.67;48.38;98879.65;108355;1284;137310;-65
2022/05/28 10:56:10;;;;;;;23.40;17.20;;;;;;;17.75;47.42;98878.15;108413;1284;22465;-65
2022/05/28 10:58:47;;;;;;;11.60;6.40;;;;;;;17.77;47.01;98876.86;108378;1282;138204;-65
2022/05/28 11:01:24;;;;;;;10.70;6.80;;;;;;;17.82;47.89;98877.56;108487;1282;22431;-65
2022/05/28 11:04:01;;;;;;;4.90;3.10;;;;;;;17.87;47.55;98878.34;108413;1286;22567;-65
2022/05/28 11:06:38;;;;;;;6.40;2.80;;;;;;;17.94;46.56;98872.16;108686;1280;139571;-63
2022/05/28 11:09:05;;;;;;;5.90;3.40;;;;;;;17.98;46.99;98878.17;108839;1280;22529;-65
2022/05/28 11:11:54;;;;;;;6.40;2.90;;;;;;;18.01;46.51;98875.16;108762;1280;138519;-65
2022/05/28 11:14:25;;;;;;;6.20;3.80;;;;;;;17.99;46.16;98876.98;108822;1280;22682;-65
2022/05/28 11:17:23;;;;;;;9.70;4.50;;;;;;;17.93;45.71;98875.66;108713;1280;137703;-65
2022/05/28 11:20:10;;;;;;;6.10;4.20;;;;;;;17.86;46.29;98878.23;108674;1281;22464;-65
2022/05/28 11:22:37;;;;;;;6.80;3.60;;;;;;;17.83;47.18;98873.67;108524;1280;137492;-66
2022/05/28 11:25:34;;;;;;;6.70;2.70;;;;;;;17.86;47.06;98871.77;108943;1279;22425;-65
2022/05/28 11:28:10;;;;;;;5.00;2.30;;;;;;;17.91;46.10;98865.99;104478;1280;22617;-63
2022/05/28 11:30:48;;;;;;;7.90;2.30;;;;;;;17.94;45.99;98869.58;104394;1280;138794;-65
2022/05/28 11:33:25;;;;;;;3.50;1.70;;;;;;;17.97;46.00;98867.34;104572;1280;25266;-65
2022/05/28 11:35:58;;;;;;;3.50;1.90;;;;;;;18.01;46.07;98868.16;104430;1283;137068;-64
2022/05/28 11:38:31;;;;;;;3.70;2.00;;;;;;;18.05;44.76;98865.61;104413;1282;22588;-65
2022/05/28 11:41:05;;;;;;;3.10;1.30;;;;;;;18.06;44.16;98868.11;104383;1281;137489;-65
2022/05/28 11:43:49;;;;;;;3.80;1.90;;;;;;;18.07;44.43;98864.39;108827;1281;23340;-65
2022/05/28 11:46:26;;;;;;;5.10;2.30;;;;;;;18.11;44.48;98861.84;108728;1281;22574;-66
2022/05/28 11:51:42;;;;;;;4.40;1.70;;;;;;;18.24;41.63;98867.48;108861;1281;22483;-63
2022/05/28 11:54:33;;;;;;;7.10;1.80;;;;;;;18.24;41.88;98874.65;108737;1281;137913;-63